createdAt,value
2023-08-24T00:02:03.805Z,8.53
2023-08-24T00:04:32.580Z,7.80
2023-08-24T00:07:06.081Z,5.50
2023-08-24T00:12:15.116Z,6.30
2023-08-24T00:14:42.112Z,4.47
2023-08-24T00:17:09.177Z,10.50
2023-08-24T00:19:36.241Z,8.03
2023-08-24T00:22:03.331Z,7.77
2023-08-24T00:24:30.320Z,4.30
2023-08-24T00:26:57.365Z,5.53
2023-08-24T00:29:24.353Z,10.23
2023-08-24T00:31:51.421Z,7.40
2023-08-24T00:34:18.430Z,7.03
2023-08-24T00:36:45.562Z,5.00
2023-08-24T00:39:13.166Z,10.77
2023-08-24T00:41:43.590Z,7.80
2023-08-24T00:44:10.541Z,6.00
2023-08-24T00:46:37.534Z,5.97
2023-08-24T00:49:04.557Z,7.23
2023-08-24T00:51:31.553Z,10.10
2023-08-24T00:53:58.674Z,4.93
2023-08-24T00:56:25.996Z,6.50
2023-08-24T00:58:55.276Z,5.40
2023-08-24T01:01:22.382Z,4.87
2023-08-24T01:03:49.350Z,5.77
2023-08-24T01:06:16.647Z,6.33
2023-08-24T01:08:44.302Z,5.70
2023-08-24T01:11:37.074Z,5.90
2023-08-24T01:14:17.837Z,6.57
2023-08-24T01:16:47.609Z,6.37
2023-08-24T01:19:45.618Z,5.77
2023-08-24T01:22:29.118Z,8.60
2023-08-24T01:25:12.532Z,12.63
2023-08-24T01:27:40.845Z,7.60
2023-08-24T01:30:09.070Z,6.40
2023-08-24T01:32:36.830Z,6.50
2023-08-24T01:35:07.006Z,6.23
2023-08-24T01:37:36.221Z,6.50
2023-08-24T01:40:35.987Z,7.63
2023-08-24T01:43:07.008Z,6.83
2023-08-24T01:45:35.239Z,9.57
2023-08-24T01:48:04.683Z,7.07
2023-08-24T01:50:33.836Z,6.33
2023-08-24T01:53:01.407Z,6.60
2023-08-24T01:55:29.104Z,5.67
2023-08-24T01:57:57.212Z,7.10
2023-08-24T02:00:24.496Z,5.70
2023-08-24T02:02:51.506Z,6.47
2023-08-24T02:05:18.523Z,6.43
2023-08-24T02:07:45.506Z,5.60
2023-08-24T02:10:12.577Z,5.30
2023-08-24T02:12:39.481Z,6.03
2023-08-24T02:15:06.907Z,10.30
2023-08-24T02:17:34.845Z,6.70
2023-08-24T02:20:01.976Z,5.90
2023-08-24T02:22:31.989Z,6.80
2023-08-24T02:24:59.106Z,7.97
2023-08-24T02:27:26.021Z,8.30
2023-08-24T02:29:52.959Z,6.70
2023-08-24T02:32:19.983Z,13.30
2023-08-24T02:34:48.006Z,5.73
2023-08-24T02:39:56.763Z,6.90
2023-08-24T02:42:23.582Z,7.27
2023-08-24T02:44:50.810Z,6.10
2023-08-24T02:47:17.696Z,7.53
2023-08-24T02:49:44.656Z,11.53
2023-08-24T02:52:11.529Z,6.80
2023-08-24T02:54:38.668Z,7.33
2023-08-24T02:57:05.862Z,6.70
2023-08-24T02:59:33.254Z,5.97
2023-08-24T03:02:00.459Z,7.70
2023-08-24T03:04:27.811Z,6.33
2023-08-24T03:06:54.797Z,11.50
2023-08-24T03:09:21.681Z,6.60
2023-08-24T03:11:48.666Z,8.10
2023-08-24T03:14:15.577Z,7.97
2023-08-24T03:16:42.549Z,7.43
2023-08-24T03:19:09.892Z,10.30
2023-08-24T03:21:37.147Z,8.63
2023-08-24T03:24:05.571Z,9.27
2023-08-24T03:26:32.551Z,9.33
2023-08-24T03:28:59.611Z,10.00
2023-08-24T03:31:27.535Z,6.67
2023-08-24T03:33:54.609Z,7.47
2023-08-24T03:36:22.210Z,7.70
2023-08-24T03:38:49.270Z,7.20
2023-08-24T03:41:16.307Z,10.23
2023-08-24T03:43:43.237Z,8.10
2023-08-24T03:46:10.255Z,7.27
2023-08-24T03:48:37.286Z,11.97
2023-08-24T03:51:04.470Z,11.90
2023-08-24T03:53:31.363Z,8.30
2023-08-24T03:55:58.277Z,7.00
2023-08-24T03:58:25.270Z,6.70
2023-08-24T04:00:52.408Z,7.23
2023-08-24T04:03:19.504Z,12.10
2023-08-24T04:05:46.558Z,12.70
2023-08-24T04:08:13.539Z,7.47
2023-08-24T04:10:40.733Z,7.63
2023-08-24T04:13:07.805Z,11.47
2023-08-24T04:15:34.832Z,9.67
2023-08-24T04:18:02.041Z,7.60
2023-08-24T04:20:28.867Z,9.00
2023-08-24T04:22:57.478Z,7.37
2023-08-24T04:25:24.442Z,8.40
2023-08-24T04:27:51.497Z,9.47
2023-08-24T04:30:18.738Z,9.77
2023-08-24T04:32:45.741Z,9.37
2023-08-24T04:35:12.815Z,9.60
2023-08-24T04:37:39.929Z,6.83
2023-08-24T04:40:08.550Z,7.73
2023-08-24T04:42:35.551Z,8.43
2023-08-24T04:45:02.912Z,11.07
2023-08-24T04:47:29.969Z,8.23
2023-08-24T04:49:57.311Z,9.63
2023-08-24T04:52:24.776Z,8.17
2023-08-24T04:54:54.664Z,9.20
2023-08-24T04:57:24.607Z,8.10
2023-08-24T05:00:18.531Z,7.50
2023-08-24T05:02:46.687Z,10.57
2023-08-24T05:05:15.328Z,15.03
2023-08-24T05:07:42.483Z,12.03
2023-08-24T05:10:09.924Z,10.30
2023-08-24T05:12:37.316Z,7.90
2023-08-24T05:15:05.950Z,8.53
2023-08-24T05:17:33.582Z,8.97
2023-08-24T05:20:00.923Z,10.07
2023-08-24T05:22:28.354Z,9.90
2023-08-24T05:24:55.750Z,10.10
2023-08-24T05:27:23.116Z,10.10
2023-08-24T05:29:50.160Z,13.37
2023-08-24T05:32:17.325Z,9.70
2023-08-24T05:34:44.752Z,10.23
2023-08-24T05:37:12.124Z,7.53
2023-08-24T05:39:40.210Z,7.90
2023-08-24T05:42:08.175Z,6.90
2023-08-24T05:44:35.629Z,7.67
2023-08-24T05:47:02.961Z,7.23
2023-08-24T05:49:31.169Z,7.50
2023-08-24T05:52:00.019Z,9.60
2023-08-24T05:54:27.275Z,7.93
2023-08-24T05:56:54.526Z,6.50
2023-08-24T05:59:22.101Z,7.50
2023-08-24T06:01:49.713Z,7.67
2023-08-24T06:04:16.744Z,8.80
2023-08-24T06:06:45.005Z,6.60
2023-08-24T06:09:12.225Z,6.87
2023-08-24T06:11:39.648Z,10.80
2023-08-24T06:14:08.720Z,9.10
2023-08-24T06:16:35.986Z,5.63
2023-08-24T06:19:04.186Z,8.40
2023-08-24T06:21:31.195Z,9.63
2023-08-24T06:23:58.536Z,6.57
2023-08-24T06:26:25.500Z,8.30
2023-08-24T06:28:52.428Z,7.40
2023-08-24T06:31:31.273Z,6.30
2023-08-24T06:34:01.349Z,6.40
2023-08-24T06:36:30.469Z,5.10
2023-08-24T06:39:00.687Z,5.60
2023-08-24T06:41:27.595Z,4.57
2023-08-24T06:43:55.289Z,4.53
2023-08-24T06:46:23.338Z,5.50
2023-08-24T06:48:50.427Z,11.30
2023-08-24T06:51:17.652Z,14.73
2023-08-24T06:53:44.548Z,5.60
2023-08-24T06:56:12.265Z,10.93
2023-08-24T06:58:39.479Z,6.30
2023-08-24T07:01:07.351Z,5.77
2023-08-24T07:03:35.438Z,7.63
2023-08-24T07:06:02.748Z,6.63
2023-08-24T07:08:30.277Z,5.77
2023-08-24T07:10:57.774Z,6.10
2023-08-24T07:13:24.978Z,6.30
2023-08-24T07:15:52.434Z,6.63
2023-08-24T07:18:19.439Z,14.90
2023-08-24T07:20:46.395Z,8.10
2023-08-24T07:23:13.659Z,10.53
2023-08-24T07:25:40.643Z,6.73
2023-08-24T07:28:08.333Z,15.00
2023-08-24T07:30:36.859Z,9.23
2023-08-24T07:33:04.657Z,12.77
2023-08-24T07:35:32.792Z,11.50
2023-08-24T07:38:05.964Z,8.50
2023-08-24T07:40:33.299Z,7.20
2023-08-24T07:43:00.516Z,7.63
2023-08-24T07:45:27.777Z,13.00
2023-08-24T07:47:56.084Z,7.60
2023-08-24T07:50:24.294Z,9.53
2023-08-24T07:52:51.309Z,12.03
2023-08-24T07:55:18.306Z,11.90
2023-08-24T07:57:45.233Z,11.23
2023-08-24T08:00:15.386Z,5.60
2023-08-24T08:02:42.868Z,11.27
2023-08-24T08:05:11.890Z,6.03
2023-08-24T08:07:38.978Z,6.30
2023-08-24T08:10:06.714Z,10.33
2023-08-24T08:12:34.358Z,9.23
2023-08-24T08:15:01.706Z,7.00
2023-08-24T08:17:31.944Z,10.60
2023-08-24T08:19:59.429Z,8.97
2023-08-24T08:22:27.572Z,11.90
2023-08-24T08:24:57.570Z,7.03
2023-08-24T08:27:24.934Z,5.83
2023-08-24T08:29:52.394Z,7.03
2023-08-24T08:32:20.168Z,4.72
2023-08-24T08:34:47.213Z,5.38
2023-08-24T08:37:15.671Z,5.72
2023-08-24T08:39:45.171Z,4.05
2023-08-24T08:42:17.167Z,4.65
2023-08-24T08:44:49.355Z,6.85
2023-08-24T08:47:22.717Z,6.40
2023-08-24T08:49:53.329Z,6.07
2023-08-24T08:55:19.116Z,4.45
2023-08-24T08:57:50.135Z,15.23
2023-08-24T09:00:19.262Z,4.60
2023-08-24T09:02:49.004Z,7.32
2023-08-24T09:05:22.161Z,4.97
2023-08-24T09:07:59.556Z,4.82
2023-08-24T09:10:35.984Z,8.57
2023-08-24T09:13:04.682Z,7.38
2023-08-24T09:15:36.782Z,4.13
2023-08-24T09:18:05.306Z,7.13
2023-08-24T09:20:32.789Z,6.57
2023-08-24T09:23:00.364Z,6.07
2023-08-24T09:25:37.882Z,5.80
2023-08-24T09:28:08.885Z,6.10
2023-08-24T09:30:36.996Z,4.95
2023-08-24T09:33:11.237Z,5.20
2023-08-24T09:35:40.854Z,4.45
2023-08-24T09:38:23.241Z,8.27
2023-08-24T09:41:04.733Z,3.97
2023-08-24T09:43:34.004Z,5.63
2023-08-24T09:46:01.190Z,5.97
2023-08-24T09:48:30.108Z,4.32
2023-08-24T09:50:58.721Z,6.68
2023-08-24T09:53:26.244Z,5.97
2023-08-24T09:56:01.971Z,5.97
2023-08-24T09:58:29.827Z,5.72
2023-08-24T10:00:57.533Z,6.10
2023-08-24T10:03:28.856Z,5.30
2023-08-24T10:06:09.046Z,5.38
2023-08-24T10:08:40.315Z,4.43
2023-08-24T10:11:09.805Z,7.47
2023-08-24T10:14:03.603Z,8.57
2023-08-24T10:16:32.493Z,7.28
2023-08-24T10:19:00.581Z,6.28
2023-08-24T10:21:29.591Z,5.18
2023-08-24T10:23:59.054Z,13.80
2023-08-24T10:26:27.336Z,7.72
2023-08-24T10:28:55.780Z,8.27
2023-08-24T10:31:26.592Z,7.60
2023-08-24T10:33:55.780Z,5.57
2023-08-24T10:36:24.985Z,5.93
2023-08-24T10:38:51.982Z,9.25
2023-08-24T10:47:18.130Z,5.95
2023-08-24T10:50:00.584Z,5.00
2023-08-24T10:52:35.648Z,11.38
2023-08-24T10:55:53.582Z,5.03
2023-08-24T10:58:20.477Z,8.23
2023-08-24T11:00:50.876Z,5.57
2023-08-24T11:03:39.700Z,5.38
2023-08-24T11:06:19.938Z,7.70
2023-08-24T11:09:15.674Z,7.03
2023-08-24T11:11:43.047Z,6.07
2023-08-24T11:14:28.472Z,10.18
2023-08-24T11:16:59.645Z,8.68
2023-08-24T11:19:27.220Z,7.60
2023-08-24T11:21:54.380Z,4.50
2023-08-24T11:24:21.712Z,6.22
2023-08-24T11:26:49.992Z,8.13
2023-08-24T11:29:19.512Z,9.15
2023-08-24T11:31:53.449Z,7.38
2023-08-24T11:34:20.511Z,6.43
2023-08-24T11:36:49.369Z,8.43
2023-08-24T11:39:20.955Z,7.75
2023-08-24T11:42:06.845Z,7.60
2023-08-24T11:44:49.885Z,7.18
2023-08-24T11:47:17.309Z,12.40
2023-08-24T11:49:44.407Z,5.63
2023-08-24T11:52:11.326Z,7.78
2023-08-24T11:54:39.677Z,6.55
2023-08-24T11:57:09.562Z,7.60
2023-08-24T11:59:38.592Z,6.82
2023-08-24T12:02:09.662Z,5.65
2023-08-24T12:04:43.678Z,5.15
2023-08-24T12:07:12.585Z,9.05
2023-08-24T12:09:41.488Z,9.35
2023-08-24T12:12:14.438Z,4.78
2023-08-24T12:14:42.847Z,5.43
2023-08-24T12:17:11.539Z,10.13
2023-08-24T12:19:43.703Z,9.68
2023-08-24T12:22:14.798Z,7.22
2023-08-24T12:24:46.442Z,5.32
2023-08-24T12:27:28.712Z,6.05
2023-08-24T12:29:55.726Z,7.03
2023-08-24T12:32:26.570Z,5.68
2023-08-24T12:34:55.690Z,6.18
2023-08-24T12:37:22.681Z,7.32
2023-08-24T12:39:49.940Z,13.98
2023-08-24T12:42:16.838Z,10.13
2023-08-24T12:44:44.129Z,7.57
2023-08-24T12:47:11.134Z,9.50
2023-08-24T12:49:37.966Z,9.55
2023-08-24T12:52:05.117Z,8.23
2023-08-24T12:54:31.961Z,8.75
2023-08-24T12:56:59.110Z,6.43
2023-08-24T12:59:25.956Z,9.07
2023-08-24T13:01:55.488Z,8.77
2023-08-24T13:04:22.411Z,7.53
2023-08-24T13:06:49.301Z,6.80
2023-08-24T13:09:16.230Z,6.38
2023-08-24T13:11:43.070Z,9.35
2023-08-24T13:14:09.977Z,7.57
2023-08-24T13:16:36.957Z,11.90
2023-08-24T13:19:03.932Z,6.32
2023-08-24T13:21:30.902Z,12.40
2023-08-24T13:23:57.737Z,10.63
2023-08-24T13:26:24.773Z,8.55
2023-08-24T13:28:52.206Z,13.80
2023-08-24T13:31:19.727Z,11.20
2023-08-24T13:33:47.223Z,10.02
2023-08-24T13:36:14.422Z,11.70
2023-08-24T13:38:41.393Z,7.85
2023-08-24T13:41:08.414Z,6.43
2023-08-24T13:43:35.571Z,13.85
2023-08-24T13:46:04.585Z,5.85
2023-08-24T13:48:35.204Z,9.75
2023-08-24T13:51:02.426Z,9.90
2023-08-24T13:53:29.478Z,14.18
2023-08-24T13:55:56.379Z,10.40
2023-08-24T13:58:23.384Z,9.85
2023-08-24T14:00:57.008Z,7.90
2023-08-24T14:03:24.145Z,15.30
2023-08-24T14:05:55.698Z,8.95
2023-08-24T14:08:22.582Z,8.38
2023-08-24T14:10:49.835Z,9.45
2023-08-24T14:13:17.133Z,8.80
2023-08-24T14:15:43.956Z,8.85
2023-08-24T14:18:13.729Z,10.23
2023-08-24T14:20:40.558Z,9.38
2023-08-24T14:23:07.647Z,11.45
2023-08-24T14:25:34.835Z,9.80
2023-08-24T14:28:05.982Z,11.38
2023-08-24T14:30:34.017Z,11.55
2023-08-24T14:33:01.051Z,11.43
2023-08-24T14:35:28.535Z,16.60
2023-08-24T14:37:56.746Z,11.85
2023-08-24T14:40:24.001Z,13.55
2023-08-24T14:42:50.981Z,10.77
2023-08-24T14:45:18.654Z,11.65
2023-08-24T14:47:46.759Z,17.65
2023-08-24T14:50:13.838Z,12.73
2023-08-24T14:52:42.059Z,16.83
2023-08-24T14:55:10.836Z,11.63
2023-08-24T14:57:37.736Z,13.45
2023-08-24T15:00:06.488Z,17.17
2023-08-24T15:02:33.765Z,13.00
2023-08-24T15:05:01.616Z,9.18
2023-08-24T15:07:28.558Z,8.52
2023-08-24T15:09:55.856Z,12.23
2023-08-24T15:12:23.241Z,9.10
2023-08-24T15:15:05.629Z,12.95
2023-08-24T15:17:32.895Z,13.30
2023-08-24T15:20:00.100Z,14.93
2023-08-24T15:22:30.065Z,12.85
2023-08-24T15:24:57.146Z,11.38
2023-08-24T15:27:24.092Z,14.20
2023-08-24T15:29:52.643Z,14.52
2023-08-24T15:32:20.043Z,10.65
2023-08-24T15:34:47.499Z,15.82
2023-08-24T15:37:14.380Z,12.07
2023-08-24T15:39:41.655Z,15.85
2023-08-24T15:42:09.089Z,13.25
2023-08-24T15:44:36.058Z,14.95
2023-08-24T15:47:03.192Z,12.93
2023-08-24T15:49:30.097Z,12.48
2023-08-24T15:51:57.102Z,14.15
2023-08-24T15:54:26.121Z,8.98
2023-08-24T15:56:54.763Z,7.70
2023-08-24T15:59:23.145Z,9.48
2023-08-24T16:01:50.006Z,7.70
2023-08-24T16:04:16.957Z,10.73
2023-08-24T16:06:44.620Z,6.60
2023-08-24T16:09:11.647Z,9.30
2023-08-24T16:11:38.892Z,5.75
2023-08-24T16:14:06.170Z,5.27
2023-08-24T16:16:34.932Z,11.10
2023-08-24T16:19:02.163Z,7.90
2023-08-24T16:21:29.645Z,10.13
2023-08-24T16:23:58.993Z,7.30
2023-08-24T16:26:26.333Z,5.78
2023-08-24T16:28:53.386Z,5.13
2023-08-24T16:31:20.377Z,6.60
2023-08-24T16:33:47.290Z,4.87
2023-08-24T16:36:14.262Z,7.47
2023-08-24T16:38:41.173Z,8.57
2023-08-24T16:41:08.179Z,5.05
2023-08-24T16:43:35.039Z,8.03
2023-08-24T16:46:01.860Z,6.80
2023-08-24T16:48:28.689Z,7.43
2023-08-24T16:50:55.619Z,5.33
2023-08-24T16:53:22.499Z,3.90
2023-08-24T16:55:52.251Z,3.47
2023-08-24T16:58:19.206Z,5.10
2023-08-24T17:00:46.423Z,3.00
2023-08-24T17:03:13.485Z,4.50
2023-08-24T17:05:40.413Z,3.23
2023-08-24T17:08:10.353Z,7.20
2023-08-24T17:10:40.276Z,5.83
2023-08-24T17:13:07.470Z,5.30
2023-08-24T17:15:34.635Z,2.73
2023-08-24T17:18:02.136Z,1.93
2023-08-24T17:20:29.808Z,2.63
2023-08-24T17:22:57.422Z,3.57
2023-08-24T17:25:24.799Z,1.80
2023-08-24T17:27:52.619Z,3.90
2023-08-24T17:30:19.969Z,4.60
2023-08-24T17:32:47.076Z,2.67
2023-08-24T17:35:27.726Z,4.20
2023-08-24T17:37:55.405Z,3.23
2023-08-24T17:40:29.402Z,3.83
2023-08-24T17:42:56.201Z,4.83
2023-08-24T17:45:23.367Z,4.57
2023-08-24T17:47:51.127Z,2.30
2023-08-24T17:50:18.835Z,3.43
2023-08-24T17:52:45.671Z,3.80
2023-08-24T17:55:12.609Z,5.87
2023-08-24T17:57:39.880Z,4.13
2023-08-24T18:00:07.726Z,3.00
2023-08-24T18:02:35.183Z,5.23
2023-08-24T18:05:02.453Z,5.27
2023-08-24T18:07:29.264Z,3.43
2023-08-24T18:09:56.628Z,6.43
2023-08-24T18:12:24.641Z,3.40
2023-08-24T18:14:51.560Z,6.73
2023-08-24T18:17:18.623Z,5.00
2023-08-24T18:19:45.550Z,2.03
2023-08-24T18:22:12.470Z,3.50
2023-08-24T18:24:39.320Z,5.30
2023-08-24T18:27:06.298Z,4.20
2023-08-24T18:29:34.226Z,4.60
2023-08-24T18:32:01.222Z,3.60
2023-08-24T18:34:28.166Z,1.50
2023-08-24T18:36:55.101Z,2.80
2023-08-24T18:39:22.023Z,4.97
2023-08-24T18:41:51.018Z,7.07
2023-08-24T18:44:18.981Z,4.60
2023-08-24T18:46:47.915Z,2.03
2023-08-24T18:49:16.817Z,2.40
2023-08-24T18:51:43.762Z,2.20
2023-08-24T18:54:10.734Z,2.93
2023-08-24T18:56:37.679Z,1.93
2023-08-24T18:59:04.565Z,3.60
2023-08-24T19:01:34.862Z,3.77
2023-08-24T19:04:01.962Z,3.10
2023-08-24T19:06:32.916Z,6.13
2023-08-24T19:09:08.591Z,2.93
2023-08-24T19:11:35.741Z,7.13
2023-08-24T19:14:02.623Z,8.33
2023-08-24T19:16:29.527Z,3.40
2023-08-24T19:18:56.441Z,4.73
2023-08-24T19:21:27.039Z,6.80
2023-08-24T19:23:54.022Z,4.97
2023-08-24T19:26:21.060Z,7.30
2023-08-24T19:28:47.959Z,6.80
2023-08-24T19:31:16.142Z,5.37
2023-08-24T19:33:43.139Z,14.40
2023-08-24T19:36:09.957Z,16.23
2023-08-24T19:38:36.904Z,8.90
2023-08-24T19:41:04.163Z,11.73
2023-08-24T19:43:31.108Z,10.73
2023-08-24T19:45:58.061Z,4.83
2023-08-24T19:48:25.156Z,2.93
2023-08-24T19:50:52.174Z,3.60
2023-08-24T19:53:20.732Z,7.07
2023-08-24T19:55:47.609Z,4.80
2023-08-24T19:58:14.536Z,3.83
2023-08-24T20:00:42.984Z,1.83
2023-08-24T20:03:12.491Z,1.90
2023-08-24T20:05:39.664Z,6.53
2023-08-24T20:08:06.687Z,3.63
2023-08-24T20:10:33.858Z,3.30
2023-08-24T20:13:01.121Z,7.23
2023-08-24T20:15:28.119Z,8.63
2023-08-24T20:17:55.274Z,5.50
2023-08-24T20:20:23.611Z,5.50
2023-08-24T20:22:53.650Z,3.10
2023-08-24T20:25:22.181Z,3.40
2023-08-24T20:27:49.280Z,2.20
2023-08-24T20:30:16.403Z,3.00
2023-08-24T20:32:43.666Z,4.73
2023-08-24T20:35:10.977Z,2.60
2023-08-24T20:37:38.224Z,5.27
2023-08-24T20:40:06.322Z,4.60
2023-08-24T20:42:33.957Z,4.63
2023-08-24T20:45:01.146Z,3.70
2023-08-24T20:47:28.661Z,3.70
2023-08-24T20:49:56.023Z,3.33
2023-08-24T20:52:23.324Z,3.60
2023-08-24T20:54:52.959Z,4.50
2023-08-24T20:57:21.110Z,5.50
2023-08-24T20:59:48.526Z,4.97
2023-08-24T21:02:17.393Z,2.40
2023-08-24T21:04:45.908Z,2.73
2023-08-24T21:07:12.915Z,3.93
2023-08-24T21:09:39.973Z,2.50
2023-08-24T21:12:07.476Z,3.47
2023-08-24T21:14:34.562Z,2.67
2023-08-24T21:17:01.627Z,5.70
2023-08-24T21:19:28.681Z,3.87
2023-08-24T21:21:56.205Z,2.13
2023-08-24T21:24:23.114Z,3.13
2023-08-24T21:26:50.565Z,2.87
2023-08-24T21:29:18.321Z,3.97
2023-08-24T21:31:45.735Z,4.53
2023-08-24T21:34:13.170Z,6.50
2023-08-24T21:36:40.148Z,4.63
2023-08-24T21:39:08.181Z,3.80
2023-08-24T21:41:35.247Z,1.93
2023-08-24T21:44:02.456Z,2.53
2023-08-24T21:46:31.931Z,1.93
2023-08-24T21:48:59.032Z,4.53
2023-08-24T21:51:25.992Z,2.30
2023-08-24T21:53:52.938Z,3.10
2023-08-24T21:56:19.982Z,2.27
2023-08-24T21:58:47.018Z,3.27
2023-08-24T22:01:14.384Z,1.93
2023-08-24T22:04:20.309Z,1.70
2023-08-24T22:07:32.177Z,3.27
2023-08-24T22:09:59.907Z,1.57
2023-08-24T22:12:26.949Z,1.40
2023-08-24T22:14:55.032Z,1.80
2023-08-24T22:17:22.188Z,3.43
2023-08-24T22:19:49.347Z,3.07
2023-08-24T22:22:16.215Z,2.60
2023-08-24T22:24:43.452Z,3.47
2023-08-24T22:27:10.434Z,1.50
2023-08-24T22:29:37.470Z,1.90
2023-08-24T22:32:10.476Z,1.67
2023-08-24T22:34:38.391Z,2.83
2023-08-24T22:37:06.124Z,1.83
2023-08-24T22:39:33.159Z,1.50
2023-08-24T22:42:00.305Z,3.33
2023-08-24T22:44:27.242Z,2.43
2023-08-24T22:46:54.159Z,5.23
2023-08-24T22:49:21.067Z,1.60
2023-08-24T22:51:48.106Z,3.90
2023-08-24T22:54:17.800Z,3.13
2023-08-24T22:56:45.247Z,1.87
2023-08-24T22:59:12.754Z,3.37
2023-08-24T23:01:39.782Z,4.40
2023-08-24T23:04:06.796Z,3.00
2023-08-24T23:06:56.573Z,2.87
2023-08-24T23:09:23.537Z,7.10
2023-08-24T23:11:51.234Z,2.07
2023-08-24T23:14:18.887Z,3.90
2023-08-24T23:16:46.208Z,1.80
2023-08-24T23:19:13.464Z,4.93
2023-08-24T23:21:40.535Z,2.97
2023-08-24T23:24:32.221Z,5.80
2023-08-24T23:26:55.463Z,4.33
2023-08-24T23:29:22.867Z,5.33
2023-08-24T23:31:49.930Z,4.17
2023-08-24T23:34:16.885Z,3.20
2023-08-24T23:36:44.222Z,4.07
2023-08-24T23:39:11.175Z,3.30
2023-08-24T23:41:38.018Z,3.80
2023-08-24T23:44:05.863Z,5.90
2023-08-24T23:46:33.017Z,7.10
2023-08-24T23:49:00.017Z,4.50
2023-08-24T23:51:27.274Z,5.80
2023-08-24T23:53:55.408Z,2.67
2023-08-24T23:56:22.613Z,7.03
2023-08-24T23:58:51.268Z,2.03
